sensor_id;sensor_type;location;lat;lon;timestamp;P1;durP1;ratioP1;P2;durP2;ratioP2
11709;SDS011;5911;51.036;6.972;2023-12-07T00:00:16;13.03;;;10.60;;
11709;SDS011;5911;51.036;6.972;2023-12-07T00:02:43;13.53;;;10.93;;
11709;SDS011;5911;51.036;6.972;2023-12-07T00:05:12;13.73;;;11.10;;
11709;SDS011;5911;51.036;6.972;2023-12-07T00:07:40;13.47;;;11.13;;
11709;SDS011;5911;51.036;6.972;2023-12-07T00:10:07;13.73;;;11.50;;
11709;SDS011;5911;51.036;6.972;2023-12-07T00:12:35;14.33;;;11.33;;
11709;SDS011;5911;51.036;6.972;2023-12-07T00:15:03;13.30;;;10.60;;
11709;SDS011;5911;51.036;6.972;2023-12-07T00:17:31;15.93;;;12.13;;
11709;SDS011;5911;51.036;6.972;2023-12-07T00:19:58;13.13;;;11.13;;
11709;SDS011;5911;51.036;6.972;2023-12-07T00:22:27;15.50;;;12.27;;
11709;SDS011;5911;51.036;6.972;2023-12-07T00:24:54;13.07;;;11.67;;
11709;SDS011;5911;51.036;6.972;2023-12-07T00:27:22;14.47;;;11.20;;
11709;SDS011;5911;51.036;6.972;2023-12-07T00:29:50;14.33;;;11.83;;
11709;SDS011;5911;51.036;6.972;2023-12-07T00:32:18;14.17;;;11.03;;
11709;SDS011;5911;51.036;6.972;2023-12-07T00:34:45;12.47;;;10.77;;
11709;SDS011;5911;51.036;6.972;2023-12-07T00:37:13;14.90;;;11.10;;
11709;SDS011;5911;51.036;6.972;2023-12-07T00:39:42;14.90;;;10.83;;
11709;SDS011;5911;51.036;6.972;2023-12-07T00:42:09;15.17;;;12.33;;
11709;SDS011;5911;51.036;6.972;2023-12-07T00:44:38;13.23;;;11.23;;
11709;SDS011;5911;51.036;6.972;2023-12-07T00:47:06;13.53;;;10.57;;
11709;SDS011;5911;51.036;6.972;2023-12-07T00:49:37;14.17;;;11.23;;
11709;SDS011;5911;51.036;6.972;2023-12-07T00:52:04;14.00;;;11.43;;
11709;SDS011;5911;51.036;6.972;2023-12-07T00:54:32;13.60;;;11.63;;
11709;SDS011;5911;51.036;6.972;2023-12-07T00:57:01;14.37;;;11.53;;
11709;SDS011;5911;51.036;6.972;2023-12-07T00:59:28;14.90;;;12.37;;
11709;SDS011;5911;51.036;6.972;2023-12-07T01:02:00;13.63;;;11.83;;
11709;SDS011;5911;51.036;6.972;2023-12-07T01:04:27;13.90;;;11.77;;
11709;SDS011;5911;51.036;6.972;2023-12-07T01:06:55;14.47;;;11.47;;
11709;SDS011;5911;51.036;6.972;2023-12-07T01:09:23;13.03;;;11.67;;
11709;SDS011;5911;51.036;6.972;2023-12-07T01:11:50;13.63;;;11.37;;
11709;SDS011;5911;51.036;6.972;2023-12-07T01:14:19;14.87;;;11.50;;
11709;SDS011;5911;51.036;6.972;2023-12-07T01:16:47;14.47;;;10.47;;
11709;SDS011;5911;51.036;6.972;2023-12-07T01:19:14;13.20;;;10.80;;
11709;SDS011;5911;51.036;6.972;2023-12-07T01:21:42;16.63;;;12.87;;
11709;SDS011;5911;51.036;6.972;2023-12-07T01:24:09;13.97;;;11.40;;
11709;SDS011;5911;51.036;6.972;2023-12-07T01:26:41;14.37;;;11.87;;
11709;SDS011;5911;51.036;6.972;2023-12-07T01:29:09;14.37;;;12.37;;
11709;SDS011;5911;51.036;6.972;2023-12-07T01:31:38;14.10;;;11.57;;
11709;SDS011;5911;51.036;6.972;2023-12-07T01:34:05;14.50;;;11.57;;
11709;SDS011;5911;51.036;6.972;2023-12-07T01:36:33;15.23;;;11.33;;
11709;SDS011;5911;51.036;6.972;2023-12-07T01:39:00;13.30;;;11.30;;
11709;SDS011;5911;51.036;6.972;2023-12-07T01:41:28;14.97;;;11.93;;
11709;SDS011;5911;51.036;6.972;2023-12-07T01:43:56;14.00;;;11.53;;
11709;SDS011;5911;51.036;6.972;2023-12-07T01:46:23;13.67;;;11.77;;
11709;SDS011;5911;51.036;6.972;2023-12-07T01:48:52;14.47;;;11.63;;
11709;SDS011;5911;51.036;6.972;2023-12-07T01:51:20;14.33;;;11.60;;
11709;SDS011;5911;51.036;6.972;2023-12-07T01:53:47;16.00;;;12.57;;
11709;SDS011;5911;51.036;6.972;2023-12-07T01:56:15;15.77;;;11.63;;
11709;SDS011;5911;51.036;6.972;2023-12-07T01:58:43;14.07;;;11.40;;
11709;SDS011;5911;51.036;6.972;2023-12-07T02:01:10;14.10;;;11.97;;
11709;SDS011;5911;51.036;6.972;2023-12-07T02:03:39;14.50;;;11.73;;
11709;SDS011;5911;51.036;6.972;2023-12-07T02:06:08;18.83;;;12.67;;
11709;SDS011;5911;51.036;6.972;2023-12-07T02:08:36;14.00;;;11.73;;
11709;SDS011;5911;51.036;6.972;2023-12-07T02:11:07;17.20;;;12.73;;
11709;SDS011;5911;51.036;6.972;2023-12-07T02:13:36;16.10;;;12.90;;
11709;SDS011;5911;51.036;6.972;2023-12-07T02:16:04;14.33;;;12.30;;
11709;SDS011;5911;51.036;6.972;2023-12-07T02:18:35;15.80;;;12.07;;
11709;SDS011;5911;51.036;6.972;2023-12-07T02:21:08;17.07;;;12.77;;
11709;SDS011;5911;51.036;6.972;2023-12-07T02:23:39;14.33;;;11.63;;
11709;SDS011;5911;51.036;6.972;2023-12-07T02:29:17;18.47;;;12.53;;
11709;SDS011;5911;51.036;6.972;2023-12-07T02:31:45;17.67;;;13.17;;
11709;SDS011;5911;51.036;6.972;2023-12-07T02:34:12;17.43;;;12.80;;
11709;SDS011;5911;51.036;6.972;2023-12-07T02:36:40;17.17;;;12.23;;
11709;SDS011;5911;51.036;6.972;2023-12-07T02:39:08;14.60;;;11.77;;
11709;SDS011;5911;51.036;6.972;2023-12-07T02:41:39;15.97;;;11.47;;
11709;SDS011;5911;51.036;6.972;2023-12-07T02:44:07;16.10;;;12.30;;
11709;SDS011;5911;51.036;6.972;2023-12-07T02:46:36;15.90;;;12.27;;
11709;SDS011;5911;51.036;6.972;2023-12-07T02:49:04;15.60;;;12.47;;
11709;SDS011;5911;51.036;6.972;2023-12-07T02:51:32;17.30;;;12.97;;
11709;SDS011;5911;51.036;6.972;2023-12-07T02:54:00;13.77;;;11.57;;
11709;SDS011;5911;51.036;6.972;2023-12-07T02:56:27;16.57;;;11.87;;
11709;SDS011;5911;51.036;6.972;2023-12-07T02:58:55;15.43;;;11.97;;
11709;SDS011;5911;51.036;6.972;2023-12-07T03:01:22;12.73;;;10.57;;
11709;SDS011;5911;51.036;6.972;2023-12-07T03:03:51;15.57;;;12.60;;
11709;SDS011;5911;51.036;6.972;2023-12-07T03:06:19;14.80;;;12.07;;
11709;SDS011;5911;51.036;6.972;2023-12-07T03:08:47;14.33;;;12.33;;
11709;SDS011;5911;51.036;6.972;2023-12-07T03:11:14;16.67;;;12.57;;
11709;SDS011;5911;51.036;6.972;2023-12-07T03:13:42;17.07;;;12.37;;
11709;SDS011;5911;51.036;6.972;2023-12-07T03:16:09;15.87;;;11.67;;
11709;SDS011;5911;51.036;6.972;2023-12-07T03:18:37;15.73;;;12.67;;
11709;SDS011;5911;51.036;6.972;2023-12-07T03:21:06;17.47;;;13.43;;
11709;SDS011;5911;51.036;6.972;2023-12-07T03:23:33;18.63;;;13.83;;
11709;SDS011;5911;51.036;6.972;2023-12-07T03:26:01;18.17;;;13.87;;
11709;SDS011;5911;51.036;6.972;2023-12-07T03:28:29;21.43;;;13.97;;
11709;SDS011;5911;51.036;6.972;2023-12-07T03:30:57;19.17;;;13.90;;
11709;SDS011;5911;51.036;6.972;2023-12-07T03:33:24;21.93;;;14.73;;
11709;SDS011;5911;51.036;6.972;2023-12-07T03:35:52;21.20;;;15.60;;
11709;SDS011;5911;51.036;6.972;2023-12-07T03:38:21;20.17;;;14.93;;
11709;SDS011;5911;51.036;6.972;2023-12-07T03:40:48;20.87;;;14.70;;
11709;SDS011;5911;51.036;6.972;2023-12-07T03:43:16;18.37;;;14.93;;
11709;SDS011;5911;51.036;6.972;2023-12-07T03:45:43;20.20;;;14.57;;
11709;SDS011;5911;51.036;6.972;2023-12-07T03:48:11;18.37;;;13.63;;
11709;SDS011;5911;51.036;6.972;2023-12-07T03:50:39;21.13;;;14.10;;
11709;SDS011;5911;51.036;6.972;2023-12-07T03:53:06;17.63;;;13.83;;
11709;SDS011;5911;51.036;6.972;2023-12-07T03:55:35;19.03;;;13.80;;
11709;SDS011;5911;51.036;6.972;2023-12-07T03:58:03;18.03;;;13.33;;
11709;SDS011;5911;51.036;6.972;2023-12-07T04:00:31;18.83;;;14.23;;
11709;SDS011;5911;51.036;6.972;2023-12-07T04:02:58;19.73;;;14.03;;
11709;SDS011;5911;51.036;6.972;2023-12-07T04:05:26;16.90;;;13.93;;
11709;SDS011;5911;51.036;6.972;2023-12-07T04:07:53;19.80;;;14.73;;
11709;SDS011;5911;51.036;6.972;2023-12-07T04:10:21;18.13;;;14.50;;
11709;SDS011;5911;51.036;6.972;2023-12-07T04:12:50;19.90;;;14.50;;
11709;SDS011;5911;51.036;6.972;2023-12-07T04:15:18;20.73;;;15.33;;
11709;SDS011;5911;51.036;6.972;2023-12-07T04:17:46;18.93;;;14.73;;
11709;SDS011;5911;51.036;6.972;2023-12-07T04:20:14;18.87;;;14.47;;
11709;SDS011;5911;51.036;6.972;2023-12-07T04:22:42;20.73;;;15.13;;
11709;SDS011;5911;51.036;6.972;2023-12-07T04:25:11;18.90;;;13.87;;
11709;SDS011;5911;51.036;6.972;2023-12-07T04:27:39;19.47;;;14.30;;
11709;SDS011;5911;51.036;6.972;2023-12-07T04:30:08;20.67;;;14.87;;
11709;SDS011;5911;51.036;6.972;2023-12-07T04:32:36;18.30;;;15.00;;
11709;SDS011;5911;51.036;6.972;2023-12-07T04:35:05;18.93;;;13.80;;
11709;SDS011;5911;51.036;6.972;2023-12-07T04:37:34;17.97;;;14.50;;
11709;SDS011;5911;51.036;6.972;2023-12-07T04:40:02;18.17;;;14.83;;
11709;SDS011;5911;51.036;6.972;2023-12-07T04:42:31;16.97;;;13.60;;
11709;SDS011;5911;51.036;6.972;2023-12-07T04:44:58;17.30;;;13.47;;
11709;SDS011;5911;51.036;6.972;2023-12-07T04:47:27;17.83;;;13.77;;
11709;SDS011;5911;51.036;6.972;2023-12-07T04:49:56;17.53;;;13.80;;
11709;SDS011;5911;51.036;6.972;2023-12-07T04:52:23;17.67;;;13.93;;
11709;SDS011;5911;51.036;6.972;2023-12-07T04:54:51;17.57;;;13.60;;
11709;SDS011;5911;51.036;6.972;2023-12-07T04:57:18;15.83;;;13.37;;
11709;SDS011;5911;51.036;6.972;2023-12-07T04:59:46;17.73;;;14.00;;
11709;SDS011;5911;51.036;6.972;2023-12-07T05:02:14;17.57;;;13.57;;
11709;SDS011;5911;51.036;6.972;2023-12-07T05:04:44;15.40;;;12.57;;
11709;SDS011;5911;51.036;6.972;2023-12-07T05:07:12;17.33;;;12.97;;
11709;SDS011;5911;51.036;6.972;2023-12-07T05:09:40;18.53;;;13.57;;
11709;SDS011;5911;51.036;6.972;2023-12-07T05:12:08;18.27;;;13.57;;
11709;SDS011;5911;51.036;6.972;2023-12-07T05:14:35;16.30;;;12.87;;
11709;SDS011;5911;51.036;6.972;2023-12-07T05:17:03;16.30;;;13.10;;
11709;SDS011;5911;51.036;6.972;2023-12-07T05:19:31;18.37;;;14.10;;
11709;SDS011;5911;51.036;6.972;2023-12-07T05:22:00;15.23;;;12.57;;
11709;SDS011;5911;51.036;6.972;2023-12-07T05:24:28;14.50;;;11.20;;
11709;SDS011;5911;51.036;6.972;2023-12-07T05:26:56;14.47;;;11.50;;
11709;SDS011;5911;51.036;6.972;2023-12-07T05:29:24;12.83;;;10.97;;
11709;SDS011;5911;51.036;6.972;2023-12-07T05:31:51;14.17;;;10.20;;
11709;SDS011;5911;51.036;6.972;2023-12-07T05:34:19;11.60;;;9.93;;
11709;SDS011;5911;51.036;6.972;2023-12-07T05:36:46;12.80;;;10.23;;
11709;SDS011;5911;51.036;6.972;2023-12-07T05:39:15;11.47;;;10.03;;
11709;SDS011;5911;51.036;6.972;2023-12-07T05:41:44;11.20;;;9.87;;
11709;SDS011;5911;51.036;6.972;2023-12-07T05:44:13;12.60;;;9.50;;
11709;SDS011;5911;51.036;6.972;2023-12-07T05:46:47;13.30;;;10.20;;
11709;SDS011;5911;51.036;6.972;2023-12-07T05:49:15;15.13;;;10.37;;
11709;SDS011;5911;51.036;6.972;2023-12-07T05:51:42;11.53;;;10.00;;
11709;SDS011;5911;51.036;6.972;2023-12-07T05:54:10;14.00;;;10.30;;
11709;SDS011;5911;51.036;6.972;2023-12-07T05:56:39;14.90;;;10.27;;
11709;SDS011;5911;51.036;6.972;2023-12-07T05:59:06;13.27;;;10.73;;
11709;SDS011;5911;51.036;6.972;2023-12-07T06:01:34;14.23;;;11.27;;
11709;SDS011;5911;51.036;6.972;2023-12-07T06:04:02;14.43;;;11.13;;
11709;SDS011;5911;51.036;6.972;2023-12-07T06:06:29;14.90;;;11.00;;
11709;SDS011;5911;51.036;6.972;2023-12-07T06:08:57;13.60;;;11.40;;
11709;SDS011;5911;51.036;6.972;2023-12-07T06:11:24;12.30;;;9.83;;
11709;SDS011;5911;51.036;6.972;2023-12-07T06:13:53;11.63;;;9.90;;
11709;SDS011;5911;51.036;6.972;2023-12-07T06:16:21;11.77;;;9.83;;
11709;SDS011;5911;51.036;6.972;2023-12-07T06:18:48;10.37;;;9.20;;
11709;SDS011;5911;51.036;6.972;2023-12-07T06:21:16;12.83;;;9.90;;
11709;SDS011;5911;51.036;6.972;2023-12-07T06:23:43;12.10;;;10.23;;
11709;SDS011;5911;51.036;6.972;2023-12-07T06:26:13;11.70;;;9.43;;
11709;SDS011;5911;51.036;6.972;2023-12-07T06:28:40;11.97;;;9.40;;
11709;SDS011;5911;51.036;6.972;2023-12-07T06:31:11;11.43;;;10.10;;
11709;SDS011;5911;51.036;6.972;2023-12-07T06:33:38;12.23;;;9.77;;
11709;SDS011;5911;51.036;6.972;2023-12-07T06:36:07;11.47;;;9.63;;
11709;SDS011;5911;51.036;6.972;2023-12-07T06:38:35;11.67;;;9.20;;
11709;SDS011;5911;51.036;6.972;2023-12-07T06:41:03;12.90;;;9.23;;
11709;SDS011;5911;51.036;6.972;2023-12-07T06:43:30;10.60;;;8.57;;
11709;SDS011;5911;51.036;6.972;2023-12-07T06:45:58;10.90;;;8.50;;
11709;SDS011;5911;51.036;6.972;2023-12-07T06:48:26;11.90;;;8.80;;
11709;SDS011;5911;51.036;6.972;2023-12-07T06:50:54;11.10;;;9.07;;
11709;SDS011;5911;51.036;6.972;2023-12-07T06:53:21;12.53;;;9.30;;
11709;SDS011;5911;51.036;6.972;2023-12-07T06:55:49;11.20;;;9.10;;
11709;SDS011;5911;51.036;6.972;2023-12-07T06:58:17;12.73;;;9.33;;
11709;SDS011;5911;51.036;6.972;2023-12-07T07:00:44;13.20;;;9.57;;
11709;SDS011;5911;51.036;6.972;2023-12-07T07:03:12;12.83;;;9.47;;
11709;SDS011;5911;51.036;6.972;2023-12-07T07:05:41;12.07;;;9.70;;
11709;SDS011;5911;51.036;6.972;2023-12-07T07:08:09;10.47;;;8.97;;
11709;SDS011;5911;51.036;6.972;2023-12-07T07:10:36;12.67;;;9.97;;
11709;SDS011;5911;51.036;6.972;2023-12-07T07:13:04;13.80;;;10.07;;
11709;SDS011;5911;51.036;6.972;2023-12-07T07:15:31;12.80;;;10.50;;
11709;SDS011;5911;51.036;6.972;2023-12-07T07:17:59;10.77;;;9.63;;
11709;SDS011;5911;51.036;6.972;2023-12-07T07:20:26;12.13;;;9.97;;
11709;SDS011;5911;51.036;6.972;2023-12-07T07:22:55;12.13;;;9.63;;
11709;SDS011;5911;51.036;6.972;2023-12-07T07:25:23;12.50;;;9.93;;
11709;SDS011;5911;51.036;6.972;2023-12-07T07:27:50;11.83;;;9.20;;
11709;SDS011;5911;51.036;6.972;2023-12-07T07:30:18;11.80;;;9.73;;
11709;SDS011;5911;51.036;6.972;2023-12-07T07:32:45;12.33;;;9.47;;
11709;SDS011;5911;51.036;6.972;2023-12-07T07:35:13;14.67;;;9.60;;
11709;SDS011;5911;51.036;6.972;2023-12-07T07:37:41;13.70;;;10.77;;
11709;SDS011;5911;51.036;6.972;2023-12-07T07:40:10;13.57;;;9.97;;
11709;SDS011;5911;51.036;6.972;2023-12-07T07:42:38;16.63;;;11.20;;
11709;SDS011;5911;51.036;6.972;2023-12-07T07:45:07;14.00;;;10.87;;
11709;SDS011;5911;51.036;6.972;2023-12-07T07:47:34;14.80;;;10.53;;
11709;SDS011;5911;51.036;6.972;2023-12-07T07:50:02;14.70;;;10.33;;
11709;SDS011;5911;51.036;6.972;2023-12-07T07:52:32;12.63;;;10.20;;
11709;SDS011;5911;51.036;6.972;2023-12-07T07:55:00;11.63;;;9.83;;
11709;SDS011;5911;51.036;6.972;2023-12-07T07:57:30;15.00;;;10.80;;
11709;SDS011;5911;51.036;6.972;2023-12-07T07:59:58;14.60;;;10.77;;
11709;SDS011;5911;51.036;6.972;2023-12-07T08:02:25;13.10;;;10.50;;
11709;SDS011;5911;51.036;6.972;2023-12-07T08:04:53;12.47;;;10.27;;
11709;SDS011;5911;51.036;6.972;2023-12-07T08:07:20;11.93;;;10.37;;
11709;SDS011;5911;51.036;6.972;2023-12-07T08:09:48;13.50;;;10.40;;
11709;SDS011;5911;51.036;6.972;2023-12-07T08:12:16;15.33;;;11.37;;
11709;SDS011;5911;51.036;6.972;2023-12-07T08:14:45;16.17;;;11.73;;
11709;SDS011;5911;51.036;6.972;2023-12-07T08:17:14;12.90;;;10.33;;
11709;SDS011;5911;51.036;6.972;2023-12-07T08:19:42;13.30;;;10.67;;
11709;SDS011;5911;51.036;6.972;2023-12-07T08:22:10;13.00;;;11.13;;
11709;SDS011;5911;51.036;6.972;2023-12-07T08:24:38;13.70;;;10.70;;
11709;SDS011;5911;51.036;6.972;2023-12-07T08:27:06;12.57;;;10.33;;
11709;SDS011;5911;51.036;6.972;2023-12-07T08:29:33;14.87;;;11.17;;
11709;SDS011;5911;51.036;6.972;2023-12-07T08:32:02;14.17;;;12.03;;
11709;SDS011;5911;51.036;6.972;2023-12-07T08:34:30;15.33;;;11.17;;
11709;SDS011;5911;51.036;6.972;2023-12-07T08:36:57;14.03;;;11.37;;
11709;SDS011;5911;51.036;6.972;2023-12-07T08:39:25;13.67;;;10.70;;
11709;SDS011;5911;51.036;6.972;2023-12-07T08:41:52;13.73;;;12.07;;
11709;SDS011;5911;51.036;6.972;2023-12-07T08:44:20;15.30;;;11.90;;
11709;SDS011;5911;51.036;6.972;2023-12-07T08:46:47;18.93;;;13.47;;
11709;SDS011;5911;51.036;6.972;2023-12-07T08:49:16;15.47;;;11.80;;
11709;SDS011;5911;51.036;6.972;2023-12-07T08:51:43;14.03;;;11.83;;
11709;SDS011;5911;51.036;6.972;2023-12-07T08:54:31;17.33;;;13.90;;
11709;SDS011;5911;51.036;6.972;2023-12-07T08:56:59;15.30;;;13.17;;
11709;SDS011;5911;51.036;6.972;2023-12-07T08:59:27;15.83;;;12.67;;
11709;SDS011;5911;51.036;6.972;2023-12-07T09:01:54;14.00;;;11.43;;
11709;SDS011;5911;51.036;6.972;2023-12-07T09:04:23;15.27;;;11.43;;
11709;SDS011;5911;51.036;6.972;2023-12-07T09:06:51;14.20;;;11.87;;
11709;SDS011;5911;51.036;6.972;2023-12-07T09:09:19;16.87;;;12.67;;
11709;SDS011;5911;51.036;6.972;2023-12-07T09:11:46;17.23;;;12.70;;
11709;SDS011;5911;51.036;6.972;2023-12-07T09:14:14;13.50;;;11.77;;
11709;SDS011;5911;51.036;6.972;2023-12-07T09:16:44;15.43;;;12.03;;
11709;SDS011;5911;51.036;6.972;2023-12-07T09:19:12;15.47;;;12.43;;
11709;SDS011;5911;51.036;6.972;2023-12-07T09:21:41;21.43;;;13.57;;
11709;SDS011;5911;51.036;6.972;2023-12-07T09:24:09;18.20;;;14.00;;
11709;SDS011;5911;51.036;6.972;2023-12-07T09:26:36;20.10;;;14.77;;
11709;SDS011;5911;51.036;6.972;2023-12-07T09:29:04;18.87;;;14.50;;
11709;SDS011;5911;51.036;6.972;2023-12-07T09:31:32;19.77;;;14.90;;
11709;SDS011;5911;51.036;6.972;2023-12-07T09:33:59;20.43;;;14.27;;
11709;SDS011;5911;51.036;6.972;2023-12-07T09:36:38;21.40;;;15.27;;
11709;SDS011;5911;51.036;6.972;2023-12-07T09:39:07;17.47;;;14.53;;
11709;SDS011;5911;51.036;6.972;2023-12-07T09:41:35;19.73;;;13.83;;
11709;SDS011;5911;51.036;6.972;2023-12-07T09:44:03;18.13;;;13.83;;
11709;SDS011;5911;51.036;6.972;2023-12-07T09:46:31;18.43;;;14.00;;
11709;SDS011;5911;51.036;6.972;2023-12-07T09:48:59;19.67;;;14.87;;
11709;SDS011;5911;51.036;6.972;2023-12-07T09:51:26;19.53;;;14.60;;
11709;SDS011;5911;51.036;6.972;2023-12-07T09:53:57;19.27;;;15.47;;
11709;SDS011;5911;51.036;6.972;2023-12-07T09:56:27;23.07;;;16.40;;
11709;SDS011;5911;51.036;6.972;2023-12-07T09:58:54;21.60;;;16.27;;
11709;SDS011;5911;51.036;6.972;2023-12-07T10:01:27;21.93;;;15.87;;
11709;SDS011;5911;51.036;6.972;2023-12-07T10:06:42;18.83;;;14.33;;
11709;SDS011;5911;51.036;6.972;2023-12-07T10:09:09;16.83;;;13.60;;
11709;SDS011;5911;51.036;6.972;2023-12-07T10:11:47;18.70;;;13.43;;
11709;SDS011;5911;51.036;6.972;2023-12-07T10:14:15;17.97;;;13.10;;
11709;SDS011;5911;51.036;6.972;2023-12-07T10:16:51;19.47;;;15.07;;
11709;SDS011;5911;51.036;6.972;2023-12-07T10:19:19;20.37;;;15.17;;
11709;SDS011;5911;51.036;6.972;2023-12-07T10:21:57;18.70;;;14.77;;
11709;SDS011;5911;51.036;6.972;2023-12-07T10:24:25;20.13;;;15.23;;
11709;SDS011;5911;51.036;6.972;2023-12-07T10:26:55;17.03;;;14.63;;
11709;SDS011;5911;51.036;6.972;2023-12-07T10:29:29;20.20;;;14.83;;
11709;SDS011;5911;51.036;6.972;2023-12-07T10:31:59;18.83;;;15.07;;
11709;SDS011;5911;51.036;6.972;2023-12-07T10:34:27;20.40;;;14.90;;
11709;SDS011;5911;51.036;6.972;2023-12-07T10:36:54;19.20;;;14.07;;
11709;SDS011;5911;51.036;6.972;2023-12-07T10:39:24;18.63;;;14.00;;
11709;SDS011;5911;51.036;6.972;2023-12-07T10:42:02;16.47;;;13.70;;
11709;SDS011;5911;51.036;6.972;2023-12-07T10:44:33;16.97;;;13.80;;
11709;SDS011;5911;51.036;6.972;2023-12-07T10:47:03;19.10;;;14.10;;
11709;SDS011;5911;51.036;6.972;2023-12-07T10:49:30;16.20;;;13.30;;
11709;SDS011;5911;51.036;6.972;2023-12-07T10:52:03;16.27;;;13.07;;
11709;SDS011;5911;51.036;6.972;2023-12-07T10:54:35;13.93;;;11.70;;
11709;SDS011;5911;51.036;6.972;2023-12-07T10:57:09;15.97;;;12.33;;
11709;SDS011;5911;51.036;6.972;2023-12-07T10:59:41;14.47;;;11.27;;
11709;SDS011;5911;51.036;6.972;2023-12-07T11:02:10;14.30;;;12.07;;
11709;SDS011;5911;51.036;6.972;2023-12-07T11:04:42;14.67;;;11.60;;
11709;SDS011;5911;51.036;6.972;2023-12-07T11:07:11;14.60;;;11.93;;
11709;SDS011;5911;51.036;6.972;2023-12-07T11:09:41;14.87;;;12.30;;
11709;SDS011;5911;51.036;6.972;2023-12-07T11:12:13;16.43;;;12.93;;
11709;SDS011;5911;51.036;6.972;2023-12-07T11:14:44;13.83;;;11.43;;
11709;SDS011;5911;51.036;6.972;2023-12-07T11:17:12;15.57;;;11.73;;
11709;SDS011;5911;51.036;6.972;2023-12-07T11:19:43;15.33;;;11.50;;
11709;SDS011;5911;51.036;6.972;2023-12-07T11:22:10;14.73;;;11.07;;
11709;SDS011;5911;51.036;6.972;2023-12-07T11:24:38;16.37;;;11.90;;
11709;SDS011;5911;51.036;6.972;2023-12-07T11:27:19;12.40;;;11.10;;
11709;SDS011;5911;51.036;6.972;2023-12-07T11:29:47;13.70;;;11.43;;
11709;SDS011;5911;51.036;6.972;2023-12-07T11:32:15;12.90;;;11.50;;
11709;SDS011;5911;51.036;6.972;2023-12-07T11:34:53;13.37;;;11.87;;
11709;SDS011;5911;51.036;6.972;2023-12-07T11:37:21;13.70;;;11.70;;
11709;SDS011;5911;51.036;6.972;2023-12-07T11:39:49;13.73;;;11.43;;
11709;SDS011;5911;51.036;6.972;2023-12-07T11:42:17;15.53;;;11.40;;
11709;SDS011;5911;51.036;6.972;2023-12-07T11:44:48;12.77;;;11.43;;
11709;SDS011;5911;51.036;6.972;2023-12-07T11:47:16;13.90;;;11.27;;
11709;SDS011;5911;51.036;6.972;2023-12-07T11:49:44;13.63;;;11.30;;
11709;SDS011;5911;51.036;6.972;2023-12-07T11:52:12;12.73;;;11.23;;
11709;SDS011;5911;51.036;6.972;2023-12-07T11:54:42;13.73;;;11.37;;
11709;SDS011;5911;51.036;6.972;2023-12-07T11:57:09;13.97;;;11.23;;
11709;SDS011;5911;51.036;6.972;2023-12-07T11:59:37;12.53;;;10.23;;
11709;SDS011;5911;51.036;6.972;2023-12-07T12:02:05;13.17;;;10.90;;
11709;SDS011;5911;51.036;6.972;2023-12-07T12:04:33;12.93;;;10.53;;
11709;SDS011;5911;51.036;6.972;2023-12-07T12:07:01;12.43;;;10.37;;
11709;SDS011;5911;51.036;6.972;2023-12-07T12:09:28;14.33;;;10.63;;
11709;SDS011;5911;51.036;6.972;2023-12-07T12:11:58;12.40;;;10.10;;
11709;SDS011;5911;51.036;6.972;2023-12-07T12:14:27;13.20;;;10.50;;
11709;SDS011;5911;51.036;6.972;2023-12-07T12:16:55;13.57;;;10.23;;
11709;SDS011;5911;51.036;6.972;2023-12-07T12:19:24;10.30;;;8.97;;
11709;SDS011;5911;51.036;6.972;2023-12-07T12:22:00;11.10;;;9.47;;
11709;SDS011;5911;51.036;6.972;2023-12-07T12:24:32;10.33;;;9.07;;
11709;SDS011;5911;51.036;6.972;2023-12-07T12:27:00;10.27;;;9.07;;
11709;SDS011;5911;51.036;6.972;2023-12-07T12:29:28;13.67;;;10.13;;
11709;SDS011;5911;51.036;6.972;2023-12-07T12:32:00;13.03;;;9.80;;
11709;SDS011;5911;51.036;6.972;2023-12-07T12:34:31;12.97;;;10.67;;
11709;SDS011;5911;51.036;6.972;2023-12-07T12:37:00;14.10;;;10.63;;
11709;SDS011;5911;51.036;6.972;2023-12-07T12:39:28;13.47;;;10.80;;
11709;SDS011;5911;51.036;6.972;2023-12-07T12:42:00;14.50;;;10.33;;
11709;SDS011;5911;51.036;6.972;2023-12-07T12:44:28;12.03;;;9.60;;
11709;SDS011;5911;51.036;6.972;2023-12-07T12:47:04;13.07;;;10.10;;
11709;SDS011;5911;51.036;6.972;2023-12-07T12:49:36;13.23;;;10.37;;
11709;SDS011;5911;51.036;6.972;2023-12-07T12:52:03;11.27;;;10.10;;
11709;SDS011;5911;51.036;6.972;2023-12-07T12:54:31;12.60;;;10.07;;
11709;SDS011;5911;51.036;6.972;2023-12-07T12:56:59;11.80;;;9.30;;
11709;SDS011;5911;51.036;6.972;2023-12-07T12:59:27;10.40;;;9.00;;
11709;SDS011;5911;51.036;6.972;2023-12-07T13:01:54;10.03;;;8.30;;
11709;SDS011;5911;51.036;6.972;2023-12-07T13:04:23;10.63;;;9.50;;
11709;SDS011;5911;51.036;6.972;2023-12-07T13:06:53;12.20;;;9.73;;
11709;SDS011;5911;51.036;6.972;2023-12-07T13:09:20;13.80;;;9.80;;
11709;SDS011;5911;51.036;6.972;2023-12-07T13:11:48;11.60;;;8.20;;
11709;SDS011;5911;51.036;6.972;2023-12-07T13:14:16;11.63;;;8.80;;
11709;SDS011;5911;51.036;6.972;2023-12-07T13:16:45;11.70;;;9.10;;
11709;SDS011;5911;51.036;6.972;2023-12-07T13:19:13;13.63;;;9.43;;
11709;SDS011;5911;51.036;6.972;2023-12-07T13:21:40;9.73;;;8.57;;
11709;SDS011;5911;51.036;6.972;2023-12-07T13:24:09;11.20;;;8.13;;
11709;SDS011;5911;51.036;6.972;2023-12-07T13:26:39;12.37;;;8.50;;
11709;SDS011;5911;51.036;6.972;2023-12-07T13:29:06;13.17;;;8.30;;
11709;SDS011;5911;51.036;6.972;2023-12-07T13:31:43;11.30;;;8.40;;
11709;SDS011;5911;51.036;6.972;2023-12-07T13:34:12;9.30;;;7.70;;
11709;SDS011;5911;51.036;6.972;2023-12-07T13:36:49;9.13;;;7.23;;
11709;SDS011;5911;51.036;6.972;2023-12-07T13:39:17;11.40;;;8.00;;
11709;SDS011;5911;51.036;6.972;2023-12-07T13:41:56;10.97;;;8.13;;
11709;SDS011;5911;51.036;6.972;2023-12-07T13:44:24;10.77;;;8.10;;
11709;SDS011;5911;51.036;6.972;2023-12-07T13:46:54;10.30;;;8.00;;
11709;SDS011;5911;51.036;6.972;2023-12-07T13:49:22;9.33;;;6.90;;
11709;SDS011;5911;51.036;6.972;2023-12-07T13:51:59;8.13;;;6.73;;
11709;SDS011;5911;51.036;6.972;2023-12-07T13:54:34;9.83;;;6.27;;
11709;SDS011;5911;51.036;6.972;2023-12-07T13:57:19;8.47;;;6.43;;
11709;SDS011;5911;51.036;6.972;2023-12-07T13:59:46;7.67;;;6.40;;
11709;SDS011;5911;51.036;6.972;2023-12-07T14:02:14;8.93;;;7.00;;
11709;SDS011;5911;51.036;6.972;2023-12-07T14:04:41;7.97;;;6.50;;
11709;SDS011;5911;51.036;6.972;2023-12-07T14:07:10;7.80;;;7.00;;
11709;SDS011;5911;51.036;6.972;2023-12-07T14:09:40;8.67;;;6.50;;
11709;SDS011;5911;51.036;6.972;2023-12-07T14:12:22;8.40;;;6.70;;
11709;SDS011;5911;51.036;6.972;2023-12-07T14:14:50;6.73;;;5.83;;
11709;SDS011;5911;51.036;6.972;2023-12-07T14:17:17;10.23;;;6.93;;
11709;SDS011;5911;51.036;6.972;2023-12-07T14:19:46;7.73;;;6.53;;
11709;SDS011;5911;51.036;6.972;2023-12-07T14:22:16;8.93;;;7.10;;
11709;SDS011;5911;51.036;6.972;2023-12-07T14:24:45;8.97;;;6.93;;
11709;SDS011;5911;51.036;6.972;2023-12-07T14:27:14;10.13;;;7.20;;
11709;SDS011;5911;51.036;6.972;2023-12-07T14:29:41;8.27;;;7.00;;
11709;SDS011;5911;51.036;6.972;2023-12-07T14:32:09;9.87;;;7.03;;
11709;SDS011;5911;51.036;6.972;2023-12-07T14:34:37;7.20;;;6.50;;
11709;SDS011;5911;51.036;6.972;2023-12-07T14:37:05;7.60;;;6.60;;
11709;SDS011;5911;51.036;6.972;2023-12-07T14:39:34;9.60;;;7.20;;
11709;SDS011;5911;51.036;6.972;2023-12-07T14:42:03;9.70;;;7.40;;
11709;SDS011;5911;51.036;6.972;2023-12-07T14:44:32;8.70;;;7.17;;
11709;SDS011;5911;51.036;6.972;2023-12-07T14:47:00;8.30;;;7.40;;
11709;SDS011;5911;51.036;6.972;2023-12-07T14:49:27;9.57;;;6.73;;
11709;SDS011;5911;51.036;6.972;2023-12-07T14:51:55;8.03;;;6.90;;